Time;durP1;ratioP1;P1;durP2;ratioP2;P2;SDS_P1;SDS_P2;PMS_P1;PMS_P2;Temp;Humidity;BMP_temperature;BMP_pressure;BME280_temperature;BME280_humidity;BME280_pressure;Samples;Min_cycle;Max_cycle;Signal;HPM_P1;HPM_P2
2022/09/18 00:02:08;;;;;;;7.18;2.35;;;22.00;98.70;;;;;;5036544;28;20042;-73
2022/09/18 00:04:34;;;;;;;2.75;1.27;;;22.00;98.70;;;;;;5037855;28;20117;-71
2022/09/18 00:07:00;;;;;;;3.17;1.30;;;22.00;98.80;;;;;;5041677;28;20037;-71
2022/09/18 00:09:26;;;;;;;2.90;1.40;;;21.90;99.00;;;;;;5039298;28;20057;-71
2022/09/18 00:11:53;;;;;;;2.78;1.30;;;21.80;99.00;;;;;;5035730;28;20528;-72
2022/09/18 00:14:21;;;;;;;3.85;1.50;;;21.80;99.10;;;;;;5036133;28;20082;-71
2022/09/18 00:16:49;;;;;;;7.00;1.35;;;21.70;99.00;;;;;;5037594;28;20053;-71
2022/09/18 00:19:15;;;;;;;4.50;1.33;;;21.60;98.90;;;;;;5039839;28;20036;-71
2022/09/18 00:21:44;;;;;;;4.90;1.48;;;21.60;99.10;;;;;;5036032;28;20029;-71
2022/09/18 00:24:11;;;;;;;5.28;1.17;;;21.50;99.20;;;;;;5038210;28;20069;-70
2022/09/18 00:26:37;;;;;;;2.47;1.10;;;21.60;99.40;;;;;;5035702;28;20036;-71
2022/09/18 00:29:03;;;;;;;5.13;1.30;;;21.50;99.50;;;;;;5036544;28;20603;-72
2022/09/18 00:31:32;;;;;;;4.43;1.38;;;21.50;99.60;;;;;;5033799;28;20035;-72
2022/09/18 00:34:01;;;;;;;2.95;1.30;;;21.50;99.50;;;;;;5041915;28;20041;-71
2022/09/18 00:36:28;;;;;;;3.03;1.20;;;21.50;99.50;;;;;;5032491;28;20478;-71
2022/09/18 00:38:54;;;;;;;5.50;1.25;;;21.50;99.50;;;;;;5034069;28;20041;-72
2022/09/18 00:41:27;;;;;;;5.13;1.10;;;21.40;99.60;;;;;;5034236;28;20404;-71
2022/09/18 00:43:58;;;;;;;3.65;1.35;;;21.30;99.70;;;;;;5033169;28;20048;-72
2022/09/18 00:46:26;;;;;;;3.00;1.23;;;21.30;99.90;;;;;;5032679;28;20034;-71
2022/09/18 00:49:14;;;;;;;3.58;1.38;;;21.20;99.90;;;;;;5035974;28;20123;-71
2022/09/18 00:51:42;;;;;;;4.75;1.70;;;21.30;99.90;;;;;;5033349;28;20033;-71
2022/09/18 00:54:22;;;;;;;2.63;1.08;;;21.20;99.90;;;;;;5038022;28;20037;-71
2022/09/18 00:56:51;;;;;;;3.80;1.40;;;21.20;99.90;;;;;;5036270;28;20039;-71
2022/09/18 00:59:25;;;;;;;3.40;1.30;;;21.20;99.90;;;;;;5037498;28;20026;-72
2022/09/18 01:01:52;;;;;;;2.58;1.17;;;21.10;99.90;;;;;;5027190;28;20060;-71
2022/09/18 01:04:18;;;;;;;4.47;1.40;;;21.10;99.90;;;;;;5034719;28;20447;-71
2022/09/18 01:07:17;;;;;;;3.90;1.20;;;21.00;99.90;;;;;;5032694;28;20033;-71
2022/09/18 01:10:32;;;;;;;4.72;1.38;;;21.10;99.90;;;;;;5032443;28;20061;-71
2022/09/18 01:13:06;;;;;;;3.05;1.30;;;21.00;99.90;;;;;;5002420;28;20076;-71
2022/09/18 01:15:54;;;;;;;4.57;1.35;;;21.00;99.90;;;;;;5005642;28;20508;-71
2022/09/18 01:18:24;;;;;;;7.25;1.48;;;21.10;99.90;;;;;;5025879;28;20033;-72
2022/09/18 01:20:59;;;;;;;5.72;1.38;;;21.10;99.90;;;;;;5036928;28;20531;-71
2022/09/18 01:23:37;;;;;;;3.63;1.23;;;21.10;99.90;;;;;;5034728;28;20134;-71
2022/09/18 01:26:45;;;;;;;2.05;1.10;;;21.10;99.90;;;;;;5034412;28;20119;-71
2022/09/18 01:30:03;;;;;;;4.32;1.55;;;20.90;99.90;;;;;;5041812;28;20048;-71
2022/09/18 01:32:31;;;;;;;2.55;1.30;;;20.90;99.90;;;;;;5029848;28;20037;-71
2022/09/18 01:35:04;;;;;;;4.72;1.27;;;20.90;99.90;;;;;;5034735;28;20104;-71
2022/09/18 01:37:38;;;;;;;5.22;1.25;;;20.90;99.90;;;;;;5041249;28;20084;-72
2022/09/18 01:40:35;;;;;;;3.95;1.23;;;20.90;99.90;;;;;;5036115;28;20067;-72
2022/09/18 01:43:07;;;;;;;4.25;1.40;;;20.90;99.90;;;;;;5033657;28;20095;-71
2022/09/18 01:45:40;;;;;;;3.70;1.20;;;20.90;99.90;;;;;;5037158;28;20033;-70
2022/09/18 01:48:13;;;;;;;5.30;1.50;;;20.90;99.90;;;;;;5032234;28;20397;-71
2022/09/18 01:50:45;;;;;;;2.72;1.10;;;20.80;99.90;;;;;;5034586;28;20365;-71
2022/09/18 01:53:19;;;;;;;2.88;1.13;;;20.80;99.90;;;;;;5037560;28;20043;-71
2022/09/18 01:55:54;;;;;;;2.70;1.23;;;20.90;99.90;;;;;;5037946;28;21430;-70
2022/09/18 01:58:23;;;;;;;2.92;1.30;;;20.90;99.90;;;;;;5031503;28;20056;-71
2022/09/18 02:00:59;;;;;;;6.22;1.40;;;20.90;99.90;;;;;;5034687;28;20404;-71
2022/09/18 02:03:29;;;;;;;3.55;1.48;;;20.90;99.90;;;;;;5015427;28;20487;-71
2022/09/18 02:06:09;;;;;;;8.85;1.70;;;20.90;99.90;;;;;;5033460;28;20033;-72
2022/09/18 02:08:43;;;;;;;2.38;1.25;;;20.80;99.90;;;;;;5031974;28;20052;-71
2022/09/18 02:11:11;;;;;;;2.85;1.35;;;20.70;99.90;;;;;;5032103;28;20051;-71
2022/09/18 02:14:15;;;;;;;5.50;1.67;;;20.70;99.90;;;;;;5034521;28;20041;-72
2022/09/18 02:16:43;;;;;;;4.82;1.55;;;20.70;99.90;;;;;;5043710;28;20076;-72
2022/09/18 02:19:18;;;;;;;3.97;1.42;;;20.70;99.90;;;;;;5030964;28;20132;-71
2022/09/18 02:21:48;;;;;;;4.00;1.52;;;20.60;99.90;;;;;;5043803;28;20032;-71
2022/09/18 02:24:18;;;;;;;4.45;1.48;;;20.70;99.90;;;;;;5032854;28;20595;-71
2022/09/18 02:26:46;;;;;;;5.13;1.35;;;20.60;99.90;;;;;;5036242;28;20026;-70
2022/09/18 02:29:14;;;;;;;3.90;1.40;;;20.60;99.90;;;;;;5036611;28;20170;-71
2022/09/18 02:31:40;;;;;;;8.07;1.50;;;20.50;99.90;;;;;;5037339;28;20645;-71
2022/09/18 02:34:08;;;;;;;5.75;1.95;;;20.50;99.90;;;;;;5030979;28;20045;-71
2022/09/18 02:36:44;;;;;;;3.20;1.30;;;20.50;99.90;;;;;;5035780;28;20215;-71
2022/09/18 02:39:34;;;;;;;3.85;1.38;;;20.40;99.90;;;;;;5037242;28;20041;-71
2022/09/18 02:42:22;;;;;;;3.53;1.63;;;20.40;99.90;;;;;;5038847;28;20102;-71
2022/09/18 02:45:18;;;;;;;4.80;1.63;;;20.40;99.90;;;;;;5033850;28;20033;-71
2022/09/18 02:48:14;;;;;;;5.32;1.75;;;20.40;99.90;;;;;;5030816;28;20056;-71
2022/09/18 02:50:56;;;;;;;3.63;1.30;;;20.40;99.90;;;;;;5031951;28;20183;-71
2022/09/18 02:53:26;;;;;;;;;;;20.30;99.90;;;;;;5042851;28;20037;-71
2022/09/18 02:56:01;;;;;;;4.60;1.33;;;20.30;99.90;;;;;;5034088;28;20793;-72
2022/09/18 02:58:49;;;;;;;5.65;1.40;;;20.30;99.90;;;;;;5035580;28;20400;-71
2022/09/18 03:01:16;;;;;;;2.17;1.10;;;20.20;99.90;;;;;;5033130;28;20562;-72
2022/09/18 03:03:42;;;;;;;6.13;1.40;;;20.20;99.90;;;;;;5038935;28;20048;-71
2022/09/18 03:06:08;;;;;;;5.10;1.85;;;20.20;99.90;;;;;;5036218;28;20121;-72
2022/09/18 03:08:35;;;;;;;5.28;1.10;;;20.20;99.90;;;;;;5039831;28;20033;-71
2022/09/18 03:11:00;;;;;;;3.60;1.40;;;20.20;99.90;;;;;;5037933;28;20387;-71
2022/09/18 03:13:26;;;;;;;3.60;1.20;;;20.30;99.90;;;;;;5038945;28;20037;-71
2022/09/18 03:15:54;;;;;;;3.58;1.20;;;20.20;99.90;;;;;;5038407;28;20044;-71
2022/09/18 03:18:20;;;;;;;5.50;1.40;;;20.20;99.90;;;;;;5045784;28;20125;-71
2022/09/18 03:20:46;;;;;;;5.60;1.60;;;20.10;99.90;;;;;;5037943;28;20548;-71
2022/09/18 03:23:12;;;;;;;4.10;1.50;;;20.10;99.90;;;;;;5040140;28;20097;-71
2022/09/18 03:25:38;;;;;;;4.57;1.30;;;20.10;99.90;;;;;;5036026;28;20029;-71
2022/09/18 03:28:04;;;;;;;4.15;1.23;;;20.10;99.90;;;;;;5034622;28;20420;-71
2022/09/18 03:30:30;;;;;;;6.28;1.35;;;20.10;99.90;;;;;;5037579;28;20454;-71
2022/09/18 03:32:56;;;;;;;4.60;1.27;;;20.10;99.90;;;;;;5042132;28;20033;-71
2022/09/18 03:35:22;;;;;;;2.28;1.20;;;20.10;99.90;;;;;;5040521;28;20134;-72
2022/09/18 03:37:48;;;;;;;5.18;1.30;;;20.10;99.90;;;;;;5041660;28;20041;-70
2022/09/18 03:40:14;;;;;;;4.60;1.10;;;20.00;99.90;;;;;;5038132;28;20428;-71
2022/09/18 03:42:43;;;;;;;2.63;1.25;;;20.10;99.90;;;;;;5036825;28;20056;-71
2022/09/18 03:45:10;;;;;;;4.05;1.08;;;20.00;99.90;;;;;;5036921;28;20029;-69
2022/09/18 03:47:36;;;;;;;4.10;1.50;;;20.00;99.90;;;;;;5037039;28;20034;-68
2022/09/18 03:50:03;;;;;;;2.17;0.95;;;19.90;99.90;;;;;;5043218;28;20087;-68
2022/09/18 03:52:29;;;;;;;5.05;1.35;;;19.90;99.90;;;;;;5036238;28;20025;-69
2022/09/18 03:54:54;;;;;;;3.08;1.10;;;19.90;99.90;;;;;;5040145;28;20362;-69
2022/09/18 03:57:20;;;;;;;3.47;1.52;;;19.90;99.90;;;;;;5036181;28;20481;-69
2022/09/18 03:59:46;;;;;;;4.30;1.40;;;19.90;99.90;;;;;;5042493;28;20219;-69
2022/09/18 04:02:12;;;;;;;6.20;1.23;;;19.90;99.90;;;;;;5035355;28;20070;-68
2022/09/18 04:04:37;;;;;;;5.05;1.40;;;19.90;99.90;;;;;;5040302;28;20038;-69
2022/09/18 04:07:03;;;;;;;4.07;1.20;;;19.90;99.90;;;;;;5035943;28;20441;-68
2022/09/18 04:09:29;;;;;;;3.47;1.38;;;19.90;99.90;;;;;;5037646;28;20033;-69
2022/09/18 04:11:54;;;;;;;4.50;1.35;;;19.90;99.90;;;;;;5041214;28;20116;-69
2022/09/18 04:14:21;;;;;;;3.13;1.00;;;19.90;99.90;;;;;;5039961;28;20037;-68
2022/09/18 04:16:48;;;;;;;2.85;1.30;;;19.80;99.90;;;;;;5033458;28;20029;-68
2022/09/18 04:19:15;;;;;;;4.30;1.50;;;19.80;99.90;;;;;;5033849;28;20376;-69
2022/09/18 04:21:41;;;;;;;2.97;1.20;;;19.80;99.90;;;;;;5036015;28;20044;-68
2022/09/18 04:24:07;;;;;;;2.65;1.33;;;19.80;99.90;;;;;;5036506;28;20357;-69
2022/09/18 04:26:34;;;;;;;2.47;1.00;;;19.80;99.90;;;;;;5037902;28;20394;-69
2022/09/18 04:29:01;;;;;;;5.05;1.27;;;19.90;99.90;;;;;;5036107;28;20052;-67
2022/09/18 04:31:27;;;;;;;1.52;0.93;;;19.80;99.90;;;;;;5038366;28;20044;-69
2022/09/18 04:33:53;;;;;;;3.05;1.15;;;19.90;99.90;;;;;;5035747;28;20033;-69
2022/09/18 04:36:18;;;;;;;4.13;1.40;;;19.80;99.90;;;;;;5035840;28;20029;-69
2022/09/18 04:38:44;;;;;;;4.57;1.50;;;19.70;99.90;;;;;;5040124;28;20053;-69
2022/09/18 04:41:10;;;;;;;2.83;1.25;;;19.80;99.90;;;;;;5041927;28;21129;-69
2022/09/18 04:43:36;;;;;;;3.13;1.23;;;19.70;99.90;;;;;;5044351;28;20063;-68
2022/09/18 04:46:01;;;;;;;4.07;1.40;;;19.70;99.90;;;;;;5034107;28;20033;-68
2022/09/18 04:48:27;;;;;;;7.03;1.15;;;19.70;99.90;;;;;;5031929;28;20029;-69
2022/09/18 04:50:53;;;;;;;2.17;1.02;;;19.60;99.90;;;;;;5032601;28;20045;-68
2022/09/18 04:53:19;;;;;;;3.35;1.17;;;19.60;99.90;;;;;;5033313;28;20033;-69
2022/09/18 04:55:47;;;;;;;5.18;1.45;;;19.60;99.90;;;;;;5031954;28;20070;-68
2022/09/18 04:58:13;;;;;;;4.03;1.60;;;19.50;99.90;;;;;;5031020;28;20063;-68
2022/09/18 05:00:39;;;;;;;6.07;2.03;;;19.50;99.90;;;;;;5037036;28;20125;-69
2022/09/18 05:03:05;;;;;;;7.35;1.50;;;19.50;99.90;;;;;;5042031;28;20461;-67
2022/09/18 05:05:31;;;;;;;3.13;1.30;;;19.50;99.90;;;;;;5038258;28;20374;-69
2022/09/18 05:08:01;;;;;;;3.90;1.05;;;19.50;99.90;;;;;;5035081;28;20045;-70
2022/09/18 05:10:27;;;;;;;4.10;1.50;;;19.40;99.90;;;;;;5032767;28;20064;-69
2022/09/18 05:12:53;;;;;;;3.65;1.45;;;19.40;99.90;;;;;;5040124;28;20095;-69
2022/09/18 05:15:20;;;;;;;7.28;1.42;;;19.40;99.90;;;;;;5030523;28;21891;-69
2022/09/18 05:17:46;;;;;;;5.68;1.30;;;19.30;99.90;;;;;;5040153;28;20056;-69
2022/09/18 05:20:13;;;;;;;2.90;1.40;;;19.30;99.90;;;;;;5052201;28;20051;-68
2022/09/18 05:22:43;;;;;;;4.13;1.30;;;19.20;99.90;;;;;;5036031;28;20042;-69
2022/09/18 05:25:09;;;;;;;3.08;1.38;;;19.30;99.90;;;;;;5029800;28;20068;-69
2022/09/18 05:27:35;;;;;;;2.22;1.50;;;19.20;99.90;;;;;;5038525;28;20539;-68
2022/09/18 05:30:01;;;;;;;3.92;1.30;;;19.20;99.90;;;;;;5034390;28;20021;-69
2022/09/18 05:32:27;;;;;;;7.50;1.30;;;19.10;99.90;;;;;;5034132;28;20037;-69
2022/09/18 05:34:53;;;;;;;6.20;1.73;;;19.20;99.90;;;;;;5033742;28;20067;-68
2022/09/18 05:37:19;;;;;;;3.70;1.38;;;19.10;99.90;;;;;;5034542;28;20033;-68
2022/09/18 05:39:44;;;;;;;3.08;1.30;;;19.10;99.90;;;;;;5038851;28;20128;-69
2022/09/18 05:42:10;;;;;;;9.40;2.88;;;19.10;99.90;;;;;;5031981;28;20051;-68
2022/09/18 05:44:36;;;;;;;4.22;1.50;;;19.00;99.90;;;;;;5036300;28;20103;-69
2022/09/18 05:47:01;;;;;;;3.78;1.60;;;19.00;99.90;;;;;;5034614;28;20040;-69
2022/09/18 05:49:27;;;;;;;4.65;1.92;;;19.00;99.90;;;;;;5031576;28;20040;-69
2022/09/18 05:51:54;;;;;;;4.53;1.95;;;19.00;99.90;;;;;;5034445;28;20051;-69
2022/09/18 05:54:20;;;;;;;4.90;1.50;;;19.00;99.90;;;;;;5031012;28;20048;-69
2022/09/18 05:56:46;;;;;;;5.78;1.55;;;19.10;99.90;;;;;;5038546;28;20124;-68
2022/09/18 05:59:12;;;;;;;7.25;1.40;;;19.10;99.90;;;;;;5017029;28;20045;-69
2022/09/18 06:01:38;;;;;;;3.65;1.40;;;19.10;99.90;;;;;;5035866;28;20040;-70
2022/09/18 06:04:04;;;;;;;5.22;2.28;;;19.20;99.90;;;;;;5029917;28;20135;-69
2022/09/18 06:06:32;;;;;;;8.27;2.38;;;19.20;99.90;;;;;;5032034;28;20117;-68
2022/09/18 06:08:57;;;;;;;2.83;1.35;;;19.20;99.90;;;;;;5033081;28;20079;-69
2022/09/18 06:11:24;;;;;;;4.30;1.30;;;19.20;99.90;;;;;;5029061;28;20041;-70
2022/09/18 06:13:51;;;;;;;4.22;1.17;;;19.20;99.90;;;;;;5033566;28;20450;-69
2022/09/18 06:16:18;;;;;;;3.42;1.13;;;19.20;99.90;;;;;;5030677;28;20048;-69
2022/09/18 06:18:45;;;;;;;2.58;1.10;;;19.20;99.90;;;;;;5035057;28;20038;-70
2022/09/18 06:21:13;;;;;;;3.90;1.05;;;19.20;99.90;;;;;;5019937;28;20132;-68
2022/09/18 06:23:39;;;;;;;4.85;1.17;;;19.30;99.70;;;;;;5032356;28;20103;-69
2022/09/18 06:26:06;;;;;;;3.97;1.10;;;19.30;99.20;;;;;;5033183;28;20029;-68
2022/09/18 06:28:33;;;;;;;3.05;0.93;;;19.40;98.70;;;;;;5040757;28;20060;-68
2022/09/18 06:31:00;;;;;;;4.22;0.90;;;19.40;98.20;;;;;;5036851;28;20596;-68
2022/09/18 06:33:28;;;;;;;6.05;3.13;;;19.40;97.80;;;;;;5034997;28;20040;-70
2022/09/18 06:35:54;;;;;;;3.22;1.50;;;19.40;97.60;;;;;;5033285;28;20037;-69
2022/09/18 06:38:20;;;;;;;3.50;0.93;;;19.50;97.30;;;;;;5017471;28;20049;-69
2022/09/18 06:40:50;;;;;;;4.57;1.13;;;19.50;97.10;;;;;;5034665;28;20045;-68
2022/09/18 06:43:16;;;;;;;2.88;1.25;;;19.50;96.90;;;;;;5031845;28;20556;-70
2022/09/18 06:45:42;;;;;;;1.88;1.00;;;19.60;96.60;;;;;;5036405;28;20107;-70
2022/09/18 06:48:08;;;;;;;3.05;0.90;;;19.70;96.40;;;;;;5033039;28;20034;-68
2022/09/18 06:50:35;;;;;;;2.65;0.98;;;19.70;96.30;;;;;;5031371;28;20087;-69
2022/09/18 06:53:03;;;;;;;3.22;0.93;;;19.70;96.20;;;;;;5032233;28;20071;-69
2022/09/18 06:55:30;;;;;;;3.08;0.98;;;19.70;96.30;;;;;;5031768;28;20485;-68
2022/09/18 06:57:57;;;;;;;3.33;1.10;;;19.80;96.20;;;;;;5037206;28;20400;-71
2022/09/18 07:00:23;;;;;;;3.10;1.00;;;19.80;96.00;;;;;;5036867;28;20770;-70
2022/09/18 07:03:00;;;;;;;2.63;1.10;;;19.90;95.90;;;;;;5034975;28;20037;-70
2022/09/18 07:05:27;;;;;;;2.53;1.02;;;20.00;95.90;;;;;;5032746;28;20037;-71
2022/09/18 07:07:53;;;;;;;3.67;1.10;;;20.00;95.80;;;;;;5035056;28;20120;-68
2022/09/18 07:10:19;;;;;;;5.10;1.20;;;20.10;95.90;;;;;;5016790;28;20137;-70
2022/09/18 07:12:47;;;;;;;2.78;1.10;;;20.20;95.60;;;;;;5032502;28;20401;-70
2022/09/18 07:15:17;;;;;;;6.45;1.58;;;20.30;95.60;;;;;;5036073;28;20087;-69
2022/09/18 07:17:44;;;;;;;1.77;0.98;;;20.30;95.50;;;;;;5042778;28;20040;-70
2022/09/18 07:20:12;;;;;;;5.68;1.27;;;20.40;95.60;;;;;;5035754;28;20034;-70
2022/09/18 07:22:38;;;;;;;5.95;1.25;;;20.40;95.40;;;;;;5034427;28;20950;-69
2022/09/18 07:25:06;;;;;;;3.30;0.98;;;20.40;95.50;;;;;;5038219;28;20499;-69
2022/09/18 07:27:32;;;;;;;2.33;1.27;;;20.50;95.40;;;;;;5033973;28;20053;-71
2022/09/18 07:30:00;;;;;;;5.55;1.20;;;20.60;95.50;;;;;;5037963;28;20029;-69
2022/09/18 07:32:27;;;;;;;3.58;1.00;;;20.60;95.40;;;;;;5036567;28;20037;-70
2022/09/18 07:34:53;;;;;;;2.95;1.13;;;20.70;95.30;;;;;;5040660;28;20025;-70
2022/09/18 07:37:19;;;;;;;7.65;1.10;;;20.80;95.40;;;;;;5033230;28;20128;-70
2022/09/18 07:39:45;;;;;;;2.30;1.00;;;20.90;95.50;;;;;;5039735;28;20045;-69
2022/09/18 07:42:11;;;;;;;3.75;1.17;;;20.90;95.40;;;;;;5033342;28;20041;-70
2022/09/18 07:44:38;;;;;;;2.05;1.08;;;21.00;95.30;;;;;;5032498;28;20032;-70
2022/09/18 07:47:04;;;;;;;3.60;1.30;;;21.10;95.40;;;;;;5033914;28;20056;-70
2022/09/18 07:49:31;;;;;;;3.35;1.30;;;21.20;95.50;;;;;;5039047;28;20123;-71
2022/09/18 07:51:58;;;;;;;4.18;1.20;;;21.20;95.40;;;;;;5032676;28;20041;-70
2022/09/18 07:54:25;;;;;;;3.42;1.20;;;21.20;95.40;;;;;;5037088;28;20542;-71
2022/09/18 07:56:51;;;;;;;2.97;1.30;;;21.30;95.40;;;;;;5040094;28;20408;-70
2022/09/18 07:59:16;;;;;;;5.15;1.15;;;21.40;95.60;;;;;;5035727;28;20046;-70
2022/09/18 08:01:42;;;;;;;4.38;1.52;;;21.60;95.70;;;;;;5038925;28;20478;-70
2022/09/18 08:04:08;;;;;;;3.42;1.30;;;21.60;96.00;;;;;;5036849;28;20037;-71
2022/09/18 08:06:35;;;;;;;2.53;1.20;;;21.60;96.10;;;;;;5038698;28;20033;-69
2022/09/18 08:09:00;;;;;;;2.58;1.30;;;21.70;96.10;;;;;;5039139;28;20409;-71
2022/09/18 08:11:26;;;;;;;2.95;1.08;;;21.70;95.70;;;;;;5036413;28;20034;-69
2022/09/18 08:13:52;;;;;;;3.90;1.52;;;21.80;95.50;;;;;;5034572;28;20499;-70
2022/09/18 08:16:20;;;;;;;3.97;1.35;;;21.90;95.60;;;;;;5039268;28;20044;-69
2022/09/18 08:18:46;;;;;;;7.78;1.20;;;22.00;96.10;;;;;;5035693;28;20057;-69
2022/09/18 08:21:12;;;;;;;4.35;1.52;;;22.00;96.10;;;;;;5038824;28;20432;-68
2022/09/18 08:23:38;;;;;;;3.80;1.10;;;22.20;96.20;;;;;;5036698;28;20105;-72
2022/09/18 08:26:04;;;;;;;3.70;1.05;;;22.40;96.30;;;;;;5034750;28;20125;-71
2022/09/18 08:28:30;;;;;;;3.60;1.05;;;22.30;96.40;;;;;;5038240;28;20041;-70
2022/09/18 08:30:56;;;;;;;2.40;1.00;;;22.20;96.50;;;;;;5041808;28;20045;-70
2022/09/18 08:33:22;;;;;;;3.75;1.20;;;22.20;96.50;;;;;;5024880;28;20078;-71
2022/09/18 08:35:48;;;;;;;3.55;1.02;;;22.30;96.70;;;;;;5034951;28;20087;-69
2022/09/18 08:38:14;;;;;;;3.97;1.17;;;22.10;97.90;;;;;;5035226;28;20037;-71
2022/09/18 08:40:48;;;;;;;6.18;1.30;;;21.90;98.10;;;;;;5034910;28;20450;-71
2022/09/18 08:43:41;;;;;;;2.92;0.95;;;22.00;98.20;;;;;;5012534;28;20038;-69
2022/09/18 08:46:09;;;;;;;3.85;0.98;;;22.10;98.30;;;;;;5017727;28;20119;-71
2022/09/18 08:48:48;;;;;;;6.50;1.33;;;21.90;98.60;;;;;;5035273;28;20049;-70
2022/09/18 08:51:27;;;;;;;4.63;1.10;;;22.00;98.80;;;;;;5033073;28;20033;-70
2022/09/18 08:54:16;;;;;;;5.88;1.20;;;22.30;98.40;;;;;;5019381;28;20041;-69
2022/09/18 08:56:43;;;;;;;4.10;1.17;;;22.50;98.40;;;;;;5023390;28;20088;-70
2022/09/18 08:59:26;;;;;;;3.08;1.10;;;22.70;98.10;;;;;;5041002;28;20141;-71
2022/09/18 09:02:12;;;;;;;3.22;1.10;;;22.80;98.00;;;;;;5035546;28;20450;-69
2022/09/18 09:04:38;;;;;;;2.72;1.25;;;22.80;98.10;;;;;;5033613;28;20428;-70
2022/09/18 09:07:32;;;;;;;3.53;1.10;;;22.80;98.00;;;;;;5032611;28;20033;-69
2022/09/18 09:10:14;;;;;;;2.47;1.10;;;22.80;98.20;;;;;;5036117;28;20042;-70
2022/09/18 09:13:03;;;;;;;6.55;1.30;;;22.30;98.30;;;;;;5033030;28;20056;-70
2022/09/18 09:15:48;;;;;;;3.58;1.20;;;22.60;98.50;;;;;;5036882;28;20091;-70
2022/09/18 09:18:33;;;;;;;2.35;1.27;;;22.60;98.30;;;;;;5033331;28;20404;-69
2022/09/18 09:21:18;;;;;;;5.20;1.13;;;22.70;98.20;;;;;;5034217;28;20029;-69
2022/09/18 09:24:19;;;;;;;4.55;1.30;;;22.80;98.20;;;;;;5035108;28;20042;-69
2022/09/18 09:26:50;;;;;;;4.45;1.35;;;22.80;98.10;;;;;;5036857;28;20044;-69
2022/09/18 09:29:30;;;;;;;6.00;1.30;;;22.80;98.20;;;;;;5033360;28;20041;-69
2022/09/18 09:32:18;;;;;;;3.88;1.20;;;22.60;98.30;;;;;;5036026;28;20491;-69
2022/09/18 09:35:05;;;;;;;3.33;1.17;;;22.30;98.90;;;;;;5032845;28;20092;-68
2022/09/18 09:37:38;;;;;;;2.05;1.10;;;22.40;98.70;;;;;;5034213;28;20025;-69
2022/09/18 09:40:17;;;;;;;2.78;0.88;;;22.80;98.60;;;;;;5033223;28;20075;-70
2022/09/18 09:42:55;;;;;;;3.70;1.30;;;22.80;98.30;;;;;;5040257;28;20158;-69
2022/09/18 09:45:33;;;;;;;4.07;1.40;;;23.00;98.10;;;;;;5032799;28;20040;-70
2022/09/18 09:48:26;;;;;;;5.47;1.80;;;23.30;97.90;;;;;;5022581;28;20040;-70
2022/09/18 09:51:11;;;;;;;6.13;1.50;;;23.40;97.40;;;;;;5034812;28;20076;-70
2022/09/18 09:53:38;;;;;;;5.32;1.38;;;23.90;97.30;;;;;;5032770;28;20041;-70
2022/09/18 09:56:21;;;;;;;5.40;1.52;;;24.10;97.30;;;;;;5030787;28;20118;-68
2022/09/18 09:59:13;;;;;;;3.28;1.33;;;24.20;97.20;;;;;;5036108;28;20033;-69
2022/09/18 10:01:49;;;;;;;3.38;1.17;;;24.40;96.90;;;;;;5031970;28;20047;-70
2022/09/18 10:04:43;;;;;;;6.88;1.60;;;24.90;96.30;;;;;;5035724;28;20037;-69
2022/09/18 10:07:36;;;;;;;8.18;1.60;;;25.50;95.80;;;;;;5032465;28;20543;-69
2022/09/18 10:10:20;;;;;;;6.15;1.63;;;25.90;95.30;;;;;;5037045;28;20455;-69
2022/09/18 10:13:00;;;;;;;4.38;1.52;;;26.00;94.80;;;;;;5015357;28;20543;-69
2022/09/18 10:15:45;;;;;;;5.93;1.70;;;25.40;95.30;;;;;;5032220;28;20041;-69
2022/09/18 10:18:22;;;;;;;6.47;1.75;;;25.20;95.50;;;;;;5040658;28;20120;-70
2022/09/18 10:20:53;;;;;;;3.88;1.35;;;25.30;95.80;;;;;;5030996;28;20148;-70
2022/09/18 10:23:32;;;;;;;5.20;1.60;;;24.70;96.50;;;;;;5035466;28;20042;-69
2022/09/18 10:25:59;;;;;;;6.20;2.20;;;24.50;96.90;;;;;;5037029;28;20051;-70
2022/09/18 10:28:28;;;;;;;4.93;1.60;;;25.00;96.40;;;;;;5035603;28;20041;-69
2022/09/18 10:31:09;;;;;;;7.18;1.88;;;25.20;95.90;;;;;;5033906;28;20122;-69
2022/09/18 10:33:42;;;;;;;4.82;1.45;;;24.70;96.10;;;;;;5034653;28;20021;-70
2022/09/18 10:36:23;;;;;;;6.45;1.33;;;25.10;96.30;;;;;;5033503;28;20041;-69
2022/09/18 10:38:49;;;;;;;5.57;1.70;;;25.30;96.00;;;;;;5035128;28;20638;-69
2022/09/18 10:41:34;;;;;;;4.32;1.80;;;25.60;95.60;;;;;;5032266;28;20057;-71
2022/09/18 10:44:00;;;;;;;4.57;2.17;;;25.80;95.80;;;;;;5025960;28;20107;-71
2022/09/18 10:46:29;;;;;;;5.95;1.92;;;26.00;95.90;;;;;;5033907;28;20041;-70
2022/09/18 10:48:58;;;;;;;3.88;1.48;;;26.10;95.70;;;;;;5033826;28;20435;-70
2022/09/18 10:51:25;;;;;;;3.40;1.50;;;25.70;96.20;;;;;;5036882;28;20121;-70
2022/09/18 10:54:16;;;;;;;6.07;1.63;;;25.40;96.70;;;;;;5035292;28;20048;-70
2022/09/18 10:56:41;;;;;;;4.60;1.65;;;25.90;96.50;;;;;;5024964;28;20089;-70
2022/09/18 10:59:31;;;;;;;5.22;1.63;;;25.80;96.60;;;;;;5033833;28;20864;-69
2022/09/18 11:02:00;;;;;;;5.55;1.60;;;26.80;96.00;;;;;;5040568;28;20064;-70
2022/09/18 11:04:27;;;;;;;5.65;1.20;;;27.50;95.60;;;;;;5036199;28;20116;-70
2022/09/18 11:06:55;;;;;;;3.17;1.30;;;28.10;95.00;;;;;;5040570;28;20040;-70
2022/09/18 11:09:31;;;;;;;3.20;1.30;;;28.10;94.80;;;;;;5029460;28;20034;-70
2022/09/18 11:11:57;;;;;;;3.85;1.23;;;27.20;95.20;;;;;;5033324;28;20496;-70
2022/09/18 11:14:28;;;;;;;5.03;1.45;;;26.60;95.60;;;;;;5031983;28;20042;-70
2022/09/18 11:16:59;;;;;;;5.60;1.50;;;26.20;96.20;;;;;;5035433;28;20080;-70
2022/09/18 11:19:37;;;;;;;3.97;1.42;;;26.70;96.10;;;;;;5033836;28;20037;-70
2022/09/18 11:22:06;;;;;;;2.80;1.40;;;26.90;95.70;;;;;;5035331;28;20118;-69
2022/09/18 11:24:34;;;;;;;3.08;1.25;;;26.60;95.70;;;;;;5032440;28;20063;-70
2022/09/18 11:27:21;;;;;;;5.32;1.70;;;26.60;96.20;;;;;;5034325;28;20083;-71
2022/09/18 11:29:47;;;;;;;4.75;1.55;;;27.10;95.70;;;;;;5038670;28;20033;-70
2022/09/18 11:32:25;;;;;;;4.13;1.08;;;26.20;96.20;;;;;;5042036;28;20440;-71
2022/09/18 11:34:54;;;;;;;3.60;1.20;;;26.60;96.10;;;;;;5036707;28;20060;-70
2022/09/18 11:37:49;;;;;;;5.25;1.38;;;26.70;96.30;;;;;;5034312;28;20155;-70
2022/09/18 11:40:27;;;;;;;2.53;1.10;;;26.30;96.20;;;;;;5042095;28;20124;-70
2022/09/18 11:42:54;;;;;;;3.65;1.38;;;26.30;96.20;;;;;;5040016;28;20045;-69
2022/09/18 11:45:49;;;;;;;3.35;1.10;;;26.30;96.20;;;;;;5036391;28;20091;-70
2022/09/18 11:48:39;;;;;;;4.78;1.98;;;26.30;96.20;;;;;;5035387;28;20484;-71
2022/09/18 11:51:20;;;;;;;3.53;1.30;;;27.10;96.10;;;;;;5036160;28;20033;-71
2022/09/18 11:53:56;;;;;;;2.78;1.27;;;27.50;95.70;;;;;;5033911;28;20069;-70
2022/09/18 11:56:36;;;;;;;4.15;1.45;;;27.40;95.20;;;;;;5035726;28;20645;-70
2022/09/18 11:59:11;;;;;;;3.45;1.35;;;27.70;95.30;;;;;;5035483;28;20029;-71
2022/09/18 12:01:50;;;;;;;6.22;1.67;;;26.80;95.50;;;;;;5053223;28;20377;-70
2022/09/18 12:04:37;;;;;;;4.32;1.70;;;26.70;95.90;;;;;;5034911;28;20061;-71
2022/09/18 12:07:40;;;;;;;4.90;1.55;;;26.60;96.00;;;;;;5035764;28;20044;-70
2022/09/18 12:10:31;;;;;;;2.10;1.10;;;26.70;96.10;;;;;;5037588;28;20048;-70
2022/09/18 12:13:15;;;;;;;4.22;1.33;;;26.90;96.00;;;;;;5036106;28;20144;-70
2022/09/18 12:15:47;;;;;;;3.67;1.30;;;28.10;95.20;;;;;;5043570;28;20076;-70
2022/09/18 12:18:25;;;;;;;2.60;1.13;;;28.20;95.30;;;;;;5033434;28;20033;-70
2022/09/18 12:21:04;;;;;;;8.23;1.63;;;28.60;94.60;;;;;;5034827;28;20060;-72
2022/09/18 12:23:31;;;;;;;2.60;1.13;;;28.80;94.60;;;;;;5035092;28;20122;-71
2022/09/18 12:26:21;;;;;;;4.22;1.42;;;28.70;94.70;;;;;;5045554;28;20049;-70
2022/09/18 12:29:22;;;;;;;5.72;1.40;;;28.30;95.00;;;;;;5019346;28;20041;-71
2022/09/18 12:32:22;;;;;;;4.10;1.40;;;28.00;94.90;;;;;;5037369;28;20037;-72
2022/09/18 12:35:02;;;;;;;2.97;1.10;;;28.20;95.10;;;;;;5035429;28;20124;-71
2022/09/18 12:37:58;;;;;;;6.18;1.40;;;27.10;95.50;;;;;;5035959;28;20037;-70
2022/09/18 12:40:48;;;;;;;5.57;1.80;;;26.40;96.30;;;;;;5034586;28;21069;-71
2022/09/18 12:43:38;;;;;;;3.25;1.52;;;27.00;96.20;;;;;;5033721;28;20563;-71
2022/09/18 12:46:20;;;;;;;3.78;1.30;;;27.10;96.00;;;;;;5034602;28;20038;-71
2022/09/18 12:48:55;;;;;;;3.78;1.30;;;28.10;95.40;;;;;;5038323;28;20124;-72
2022/09/18 12:51:26;;;;;;;5.68;1.90;;;28.30;95.30;;;;;;5033842;28;20033;-71
2022/09/18 12:54:15;;;;;;;4.28;1.17;;;27.20;96.00;;;;;;5034501;28;20165;-72
2022/09/18 12:57:16;;;;;;;3.35;1.50;;;27.80;95.80;;;;;;5034124;28;20492;-73
2022/09/18 12:59:54;;;;;;;4.90;1.45;;;27.20;96.00;;;;;;5038882;28;20112;-72
2022/09/18 13:02:31;;;;;;;4.88;1.38;;;27.50;96.30;;;;;;5041577;28;20064;-73
2022/09/18 13:05:18;;;;;;;5.13;1.80;;;28.50;95.80;;;;;;5032137;28;20132;-71
2022/09/18 13:07:53;;;;;;;4.43;1.67;;;28.40;95.60;;;;;;5035414;28;20068;-70
2022/09/18 13:10:42;;;;;;;5.18;1.50;;;28.10;96.00;;;;;;5031719;28;20033;-71
2022/09/18 13:13:14;;;;;;;3.45;1.85;;;27.60;96.40;;;;;;5036707;28;20068;-71
2022/09/18 13:15:43;;;;;;;6.22;1.67;;;28.10;96.30;;;;;;5035556;28;20526;-71
2022/09/18 13:18:18;;;;;;;3.22;1.48;;;28.20;96.10;;;;;;5020351;28;20381;-72